ICE852 BIKF-EKBI
Flight info
| Callsign | ICE852 |
|---|---|
| Flight time | N/A |
| Altitude | 39000 |
| Route | OSKUM3C OSKUM DCT RATSU/N0455F390 DCT BESGA DCT MOCHA DCT ALOTI DCT KARLI DCT GELBA |
| Aircraft | B752/M-SDE3FGHIM3RWXY/LB1 |
Departure
| Time | 2026-04-30 19:54 |
|---|---|
| Airport | Keflavik International Airport (BIKF) |
Arrival
| Time | N/A |
|---|---|
| Airport | Billund Airport (EKBI) |
| Time | Latitude | Longitude | Altitude | Speed | Heading |
|---|---|---|---|---|---|
| 2026-04-30 19:24 | 63.99280 | -22.62314 | 148 ft | 0 kts | 360° |
| 2026-04-30 19:45 | 63.99265 | -22.62314 | 147 ft | 2 kts | 359° |
| 2026-04-30 19:45 | 63.99250 | -22.62314 | 147 ft | 2 kts | 2° |
| 2026-04-30 19:45 | 63.99235 | -22.62319 | 147 ft | 2 kts | 15° |
| 2026-04-30 19:46 | 63.99221 | -22.62331 | 147 ft | 2 kts | 25° |
| 2026-04-30 19:46 | 63.99208 | -22.62347 | 147 ft | 2 kts | 35° |
| 2026-04-30 19:46 | 63.99197 | -22.62369 | 147 ft | 2 kts | 45° |
| 2026-04-30 19:46 | 63.99187 | -22.62395 | 147 ft | 2 kts | 55° |
| 2026-04-30 19:47 | 63.99180 | -22.62424 | 146 ft | 2 kts | 66° |
| 2026-04-30 19:47 | 63.99176 | -22.62445 | 146 ft | 2 kts | 72° |
| 2026-04-30 19:47 | 63.99172 | -22.62489 | 146 ft | 1 kts | 86° |
| 2026-04-30 19:47 | 63.99172 | -22.62504 | 146 ft | 0 kts | 89° |
| 2026-04-30 19:48 | 63.99172 | -22.62505 | 145 ft | 0 kts | 89° |
| 2026-04-30 19:50 | 63.99172 | -22.62454 | 146 ft | 7 kts | 89° |
| 2026-04-30 19:50 | 63.99172 | -22.62283 | 147 ft | 13 kts | 90° |
| 2026-04-30 19:50 | 63.99171 | -22.62046 | 148 ft | 16 kts | 90° |
| 2026-04-30 19:50 | 63.99169 | -22.61773 | 149 ft | 17 kts | 90° |
| 2026-04-30 19:51 | 63.99170 | -22.61495 | 151 ft | 17 kts | 87° |
| 2026-04-30 19:51 | 63.99173 | -22.61220 | 154 ft | 16 kts | 90° |
| 2026-04-30 19:51 | 63.99171 | -22.60989 | 157 ft | 11 kts | 90° |
| 2026-04-30 19:51 | 63.99171 | -22.60841 | 158 ft | 4 kts | 89° |
| 2026-04-30 19:52 | 63.99171 | -22.60831 | 159 ft | 0 kts | 89° |
| 2026-04-30 19:52 | 63.99171 | -22.60790 | 159 ft | 5 kts | 89° |
| 2026-04-30 19:52 | 63.99171 | -22.60698 | 160 ft | 6 kts | 89° |
| 2026-04-30 19:52 | 63.99168 | -22.60601 | 161 ft | 5 kts | 114° |
| 2026-04-30 19:53 | 63.99139 | -22.60558 | 162 ft | 4 kts | 166° |
| 2026-04-30 19:53 | 63.99126 | -22.60555 | 162 ft | 0 kts | 177° |
| 2026-04-30 19:53 | 63.98969 | -22.60552 | 167 ft | 59 kts | 180° |
| 2026-04-30 19:54 | 63.98283 | -22.60547 | 175 ft | 138 kts | 180° |
| 2026-04-30 19:54 | 63.97161 | -22.60565 | 562 ft | 177 kts | 183° |
| 2026-04-30 19:54 | 63.95937 | -22.60541 | 1730 ft | 183 kts | 172° |
| 2026-04-30 19:54 | 63.94871 | -22.59166 | 2913 ft | 192 kts | 132° |
| 2026-04-30 19:55 | 63.94303 | -22.56379 | 3930 ft | 203 kts | 110° |
| 2026-04-30 19:55 | 63.93841 | -22.53448 | 4985 ft | 199 kts | 115° |
| 2026-04-30 19:55 | 63.93315 | -22.50468 | 5605 ft | 216 kts | 114° |
| 2026-04-30 19:55 | 63.92927 | -22.46956 | 6124 ft | 244 kts | 102° |
| 2026-04-30 19:56 | 63.92589 | -22.43029 | 6679 ft | 268 kts | 104° |
| 2026-04-30 19:56 | 63.92179 | -22.38727 | 7240 ft | 289 kts | 104° |
| 2026-04-30 19:56 | 63.91740 | -22.34215 | 8092 ft | 299 kts | 105° |
| 2026-04-30 19:56 | 63.91291 | -22.29675 | 9103 ft | 303 kts | 106° |
| 2026-04-30 19:57 | 63.90818 | -22.24977 | 9967 ft | 312 kts | 106° |
| 2026-04-30 19:57 | 63.90322 | -22.20084 | 10590 ft | 329 kts | 107° |
| 2026-04-30 19:57 | 63.89788 | -22.14859 | 11087 ft | 350 kts | 106° |
| 2026-04-30 19:57 | 63.89222 | -22.09346 | 11476 ft | 373 kts | 106° |
| 2026-04-30 19:58 | 63.88611 | -22.03412 | 11838 ft | 394 kts | 106° |
| 2026-04-30 19:58 | 63.87974 | -21.97264 | 12315 ft | 410 kts | 106° |
| 2026-04-30 19:58 | 63.87330 | -21.91010 | 13038 ft | 417 kts | 106° |
| 2026-04-30 19:58 | 63.86660 | -21.84588 | 13817 ft | 424 kts | 105° |
| 2026-04-30 19:59 | 63.85968 | -21.77996 | 14500 ft | 433 kts | 106° |
| 2026-04-30 19:59 | 63.85279 | -21.71432 | 15342 ft | 437 kts | 106° |
| 2026-04-30 19:59 | 63.83835 | -21.57841 | 16731 ft | 450 kts | 106° |
| 2026-04-30 20:00 | 63.83097 | -21.50937 | 17427 ft | 457 kts | 106° |
| 2026-04-30 20:00 | 63.82342 | -21.43919 | 18072 ft | 463 kts | 107° |
| 2026-04-30 20:00 | 63.81571 | -21.36786 | 18663 ft | 471 kts | 107° |
| 2026-04-30 20:00 | 63.80788 | -21.29571 | 19403 ft | 474 kts | 108° |
| 2026-04-30 20:01 | 63.79201 | -21.15075 | 20647 ft | 484 kts | 107° |
| 2026-04-30 20:01 | 63.78391 | -21.07727 | 21286 ft | 488 kts | 107° |
| 2026-04-30 20:01 | 63.77558 | -21.00220 | 21870 ft | 493 kts | 107° |
| 2026-04-30 20:02 | 63.75868 | -20.85085 | 23037 ft | 501 kts | 107° |
| 2026-04-30 20:02 | 63.75007 | -20.77445 | 23527 ft | 506 kts | 107° |
| 2026-04-30 20:03 | 63.73258 | -20.62035 | 24675 ft | 512 kts | 107° |
| 2026-04-30 20:03 | 63.72371 | -20.54278 | 25209 ft | 516 kts | 107° |
| 2026-04-30 20:03 | 63.71399 | -20.46521 | 25758 ft | 516 kts | 112° |
| 2026-04-30 20:03 | 63.70050 | -20.39091 | 26277 ft | 516 kts | 117° |
| 2026-04-30 20:04 | 63.68590 | -20.31663 | 26836 ft | 518 kts | 118° |
| 2026-04-30 20:04 | 63.67092 | -20.24167 | 27346 ft | 521 kts | 118° |
| 2026-04-30 20:04 | 63.65611 | -20.16846 | 27846 ft | 523 kts | 118° |
| 2026-04-30 20:05 | 63.62564 | -20.01961 | 28778 ft | 528 kts | 118° |
| 2026-04-30 20:05 | 63.61012 | -19.94439 | 29148 ft | 533 kts | 118° |
| 2026-04-30 20:05 | 63.57892 | -19.79413 | 30122 ft | 535 kts | 118° |
| 2026-04-30 20:06 | 63.56315 | -19.71866 | 30607 ft | 536 kts | 118° |
| 2026-04-30 20:06 | 63.54744 | -19.64368 | 31171 ft | 533 kts | 118° |
| 2026-04-30 20:06 | 63.53174 | -19.56908 | 31683 ft | 530 kts | 118° |
| 2026-04-30 20:06 | 63.51602 | -19.49463 | 32208 ft | 525 kts | 118° |
| 2026-04-30 20:07 | 63.50051 | -19.42144 | 32691 ft | 521 kts | 119° |
| 2026-04-30 20:07 | 63.48517 | -19.34928 | 33187 ft | 516 kts | 120° |
| 2026-04-30 20:07 | 63.45448 | -19.20581 | 34094 ft | 510 kts | 120° |
| 2026-04-30 20:08 | 63.43916 | -19.13459 | 34435 ft | 509 kts | 120° |
| 2026-04-30 20:08 | 63.42385 | -19.06364 | 34743 ft | 510 kts | 120° |
| 2026-04-30 20:08 | 63.40855 | -18.99293 | 35080 ft | 509 kts | 120° |
| 2026-04-30 20:08 | 63.39332 | -18.92278 | 35404 ft | 508 kts | 120° |
| 2026-04-30 20:09 | 63.37790 | -18.85200 | 35668 ft | 509 kts | 120° |
| 2026-04-30 20:09 | 63.36248 | -18.78147 | 35934 ft | 509 kts | 120° |
| 2026-04-30 20:09 | 63.33156 | -18.64073 | 36415 ft | 510 kts | 120° |
| 2026-04-30 20:10 | 63.30051 | -18.50029 | 36839 ft | 512 kts | 120° |
| 2026-04-30 20:10 | 63.28486 | -18.42984 | 37160 ft | 510 kts | 120° |
| 2026-04-30 20:10 | 63.26910 | -18.35921 | 37341 ft | 512 kts | 120° |
| 2026-04-30 20:11 | 63.23763 | -18.21872 | 37774 ft | 511 kts | 121° |
| 2026-04-30 20:11 | 63.22189 | -18.14883 | 37990 ft | 511 kts | 121° |
| 2026-04-30 20:11 | 63.20605 | -18.07872 | 38254 ft | 510 kts | 120° |
| 2026-04-30 20:12 | 63.17438 | -17.93921 | 38798 ft | 509 kts | 120° |
| 2026-04-30 20:12 | 63.15849 | -17.86951 | 38933 ft | 508 kts | 120° |
| 2026-04-30 20:13 | 63.12662 | -17.73049 | 38916 ft | 505 kts | 120° |
| 2026-04-30 20:13 | 63.09501 | -17.59352 | 38921 ft | 506 kts | 120° |
| 2026-04-30 20:14 | 63.06299 | -17.45560 | 38940 ft | 505 kts | 120° |
| 2026-04-30 20:14 | 63.03093 | -17.31837 | 38932 ft | 505 kts | 121° |
| 2026-04-30 20:15 | 62.99883 | -17.18188 | 38935 ft | 505 kts | 121° |
| 2026-04-30 20:15 | 62.96670 | -17.04612 | 38928 ft | 505 kts | 121° |
| 2026-04-30 20:16 | 62.93438 | -16.91033 | 38958 ft | 506 kts | 121° |
| 2026-04-30 20:16 | 62.90181 | -16.77439 | 38949 ft | 505 kts | 121° |
| 2026-04-30 20:17 | 62.86920 | -16.63912 | 38967 ft | 504 kts | 121° |
| 2026-04-30 20:17 | 62.83641 | -16.50398 | 38971 ft | 505 kts | 121° |
| 2026-04-30 20:18 | 62.80363 | -16.36970 | 38967 ft | 505 kts | 121° |
| 2026-04-30 20:18 | 62.77061 | -16.23524 | 38991 ft | 503 kts | 122° |
| 2026-04-30 20:19 | 62.73760 | -16.10162 | 38983 ft | 503 kts | 122° |
| 2026-04-30 20:19 | 62.70441 | -15.96814 | 38973 ft | 504 kts | 122° |
| 2026-04-30 20:20 | 62.67107 | -15.83480 | 38997 ft | 503 kts | 122° |
| 2026-04-30 20:20 | 62.63785 | -15.70277 | 39011 ft | 501 kts | 122° |
| 2026-04-30 20:21 | 62.60446 | -15.57088 | 38970 ft | 501 kts | 122° |
| 2026-04-30 20:21 | 62.57090 | -15.43912 | 39000 ft | 502 kts | 122° |
| 2026-04-30 20:22 | 62.53734 | -15.30806 | 39041 ft | 500 kts | 123° |
| 2026-04-30 20:22 | 62.50373 | -15.17761 | 39000 ft | 499 kts | 123° |
| 2026-04-30 20:23 | 62.46995 | -15.04728 | 39023 ft | 500 kts | 123° |
| 2026-04-30 20:23 | 62.43606 | -14.91728 | 39028 ft | 499 kts | 123° |
| 2026-04-30 20:24 | 62.40208 | -14.78772 | 39031 ft | 499 kts | 123° |
| 2026-04-30 20:24 | 62.36793 | -14.65822 | 39027 ft | 500 kts | 123° |
| 2026-04-30 20:25 | 62.31649 | -14.46456 | 39031 ft | 498 kts | 123° |
| 2026-04-30 20:26 | 62.26467 | -14.27118 | 39030 ft | 499 kts | 124° |
| 2026-04-30 20:26 | 62.21290 | -14.07965 | 39033 ft | 497 kts | 124° |
| 2026-04-30 20:27 | 62.14357 | -13.82565 | 39039 ft | 497 kts | 124° |
| 2026-04-30 20:28 | 62.07404 | -13.57380 | 39061 ft | 496 kts | 124° |
| 2026-04-30 20:30 | 61.98623 | -13.25963 | 39063 ft | 494 kts | 125° |
| 2026-04-30 20:31 | 61.88023 | -12.88614 | 39090 ft | 494 kts | 125° |
| 2026-04-30 20:32 | 61.79140 | -12.57784 | 39084 ft | 493 kts | 125° |
| 2026-04-30 20:33 | 61.73801 | -12.39453 | 39085 ft | 490 kts | 125° |
| 2026-04-30 20:34 | 61.68449 | -12.21223 | 39099 ft | 489 kts | 126° |
| 2026-04-30 20:35 | 61.63065 | -12.03027 | 39091 ft | 490 kts | 126° |
| 2026-04-30 20:35 | 61.57662 | -11.84914 | 39103 ft | 490 kts | 126° |
| 2026-04-30 20:36 | 61.54056 | -11.72906 | 39098 ft | 488 kts | 126° |
| 2026-04-30 20:37 | 61.48651 | -11.55023 | 39109 ft | 489 kts | 126° |
| 2026-04-30 20:37 | 61.45033 | -11.43125 | 39119 ft | 487 kts | 126° |
| 2026-04-30 20:38 | 61.41383 | -11.31192 | 39112 ft | 489 kts | 127° |
| 2026-04-30 20:38 | 61.37744 | -11.19349 | 39116 ft | 485 kts | 127° |
| 2026-04-30 20:39 | 61.32275 | -11.01676 | 39121 ft | 488 kts | 127° |
| 2026-04-30 20:40 | 61.26769 | -10.84012 | 39124 ft | 486 kts | 127° |
| 2026-04-30 20:40 | 61.23098 | -10.72310 | 39127 ft | 485 kts | 127° |
| 2026-04-30 20:41 | 61.17582 | -10.54840 | 39128 ft | 486 kts | 127° |
| 2026-04-30 20:41 | 61.13893 | -10.43230 | 39131 ft | 486 kts | 127° |
| 2026-04-30 20:42 | 61.10198 | -10.31656 | 39127 ft | 484 kts | 128° |
| 2026-04-30 20:43 | 61.04675 | -10.14468 | 39135 ft | 481 kts | 128° |
| 2026-04-30 20:43 | 61.00996 | -10.02940 | 39127 ft | 485 kts | 124° |
| 2026-04-30 20:44 | 60.98487 | -9.89945 | 39161 ft | 496 kts | 106° |
| 2026-04-30 20:44 | 60.97944 | -9.82977 | 39147 ft | 500 kts | 100° |
| 2026-04-30 20:45 | 60.95702 | -9.55054 | 39132 ft | 497 kts | 104° |
| 2026-04-30 20:45 | 60.94398 | -9.41141 | 39136 ft | 495 kts | 104° |
| 2026-04-30 20:46 | 60.91712 | -9.13606 | 39133 ft | 493 kts | 105° |
| 2026-04-30 20:47 | 60.89648 | -8.92987 | 39141 ft | 494 kts | 105° |
| 2026-04-30 20:48 | 60.87553 | -8.72399 | 39150 ft | 494 kts | 105° |
| 2026-04-30 20:48 | 60.86136 | -8.58680 | 39151 ft | 494 kts | 105° |
| 2026-04-30 20:49 | 60.84708 | -8.44994 | 39149 ft | 496 kts | 105° |
| 2026-04-30 20:50 | 60.82531 | -8.24384 | 39143 ft | 495 kts | 107° |
| 2026-04-30 20:50 | 60.81065 | -8.10705 | 39140 ft | 496 kts | 107° |
| 2026-04-30 20:51 | 60.79578 | -7.96966 | 39141 ft | 495 kts | 107° |
| 2026-04-30 20:51 | 60.76667 | -7.76930 | 39137 ft | 492 kts | 112° |
| 2026-04-30 20:52 | 60.74548 | -7.63697 | 39143 ft | 491 kts | 112° |
| 2026-04-30 20:53 | 60.71354 | -7.43963 | 39139 ft | 490 kts | 112° |
| 2026-04-30 20:53 | 60.69208 | -7.30832 | 39138 ft | 491 kts | 113° |
| 2026-04-30 20:54 | 60.65962 | -7.11145 | 39133 ft | 489 kts | 113° |
| 2026-04-30 20:55 | 60.62710 | -6.91641 | 39147 ft | 489 kts | 114° |
| 2026-04-30 20:55 | 60.60506 | -6.78540 | 39144 ft | 489 kts | 114° |
| 2026-04-30 20:56 | 60.57197 | -6.59046 | 39163 ft | 489 kts | 114° |
| 2026-04-30 20:57 | 60.53867 | -6.39628 | 39175 ft | 487 kts | 114° |
| 2026-04-30 20:57 | 60.51650 | -6.26818 | 39158 ft | 485 kts | 115° |
| 2026-04-30 20:58 | 60.48273 | -6.07474 | 39164 ft | 485 kts | 115° |
| 2026-04-30 20:58 | 60.46028 | -5.94716 | 39177 ft | 485 kts | 115° |
| 2026-04-30 20:59 | 60.42630 | -5.75580 | 39181 ft | 485 kts | 115° |
| 2026-04-30 21:00 | 60.38041 | -5.50030 | 39155 ft | 485 kts | 115° |
| 2026-04-30 21:01 | 60.34552 | -5.30845 | 39181 ft | 485 kts | 116° |
| 2026-04-30 21:02 | 60.31117 | -5.12137 | 39174 ft | 485 kts | 116° |
| 2026-04-30 21:02 | 60.28771 | -4.99457 | 39184 ft | 484 kts | 116° |
| 2026-04-30 21:03 | 60.26418 | -4.86824 | 39193 ft | 485 kts | 116° |
| 2026-04-30 21:03 | 60.24054 | -4.74221 | 39191 ft | 486 kts | 116° |
| 2026-04-30 21:04 | 60.21675 | -4.61617 | 39203 ft | 485 kts | 116° |
| 2026-04-30 21:04 | 60.18067 | -4.42656 | 39186 ft | 484 kts | 116° |
| 2026-04-30 21:05 | 60.15669 | -4.30154 | 39205 ft | 484 kts | 116° |
| 2026-04-30 21:05 | 60.13249 | -4.17617 | 39200 ft | 481 kts | 116° |
| 2026-04-30 21:06 | 60.10833 | -4.05184 | 39204 ft | 484 kts | 116° |
| 2026-04-30 21:06 | 60.08395 | -3.92714 | 39193 ft | 482 kts | 116° |
| 2026-04-30 21:07 | 60.05960 | -3.80334 | 39184 ft | 482 kts | 116° |
| 2026-04-30 21:07 | 60.03492 | -3.67864 | 39194 ft | 483 kts | 116° |
| 2026-04-30 21:08 | 60.01019 | -3.55449 | 39194 ft | 483 kts | 116° |
| 2026-04-30 21:08 | 59.98527 | -3.43016 | 39192 ft | 484 kts | 116° |
| 2026-04-30 21:09 | 59.96027 | -3.30619 | 39188 ft | 484 kts | 117° |
| 2026-04-30 21:09 | 59.93516 | -3.18244 | 39189 ft | 483 kts | 117° |
| 2026-04-30 21:10 | 59.91008 | -3.05958 | 39190 ft | 483 kts | 117° |
| 2026-04-30 21:10 | 59.88475 | -2.93628 | 39201 ft | 484 kts | 117° |
| 2026-04-30 21:11 | 59.85924 | -2.81279 | 39207 ft | 484 kts | 117° |
| 2026-04-30 21:11 | 59.83370 | -2.68994 | 39204 ft | 483 kts | 117° |
| 2026-04-30 21:12 | 59.80801 | -2.56714 | 39213 ft | 483 kts | 117° |
| 2026-04-30 21:12 | 59.78234 | -2.44512 | 39211 ft | 483 kts | 117° |
| 2026-04-30 21:13 | 59.75640 | -2.32254 | 39211 ft | 483 kts | 118° |
| 2026-04-30 21:13 | 59.73052 | -2.20102 | 39220 ft | 482 kts | 118° |
| 2026-04-30 21:14 | 59.70442 | -2.07914 | 39221 ft | 482 kts | 117° |
| 2026-04-30 21:14 | 59.67826 | -1.95771 | 39217 ft | 482 kts | 117° |
| 2026-04-30 21:15 | 59.65197 | -1.83640 | 39221 ft | 482 kts | 117° |
| 2026-04-30 21:15 | 59.62555 | -1.71517 | 39228 ft | 482 kts | 117° |
| 2026-04-30 21:16 | 59.59914 | -1.59470 | 39232 ft | 480 kts | 117° |
| 2026-04-30 21:16 | 59.57272 | -1.47487 | 39230 ft | 481 kts | 117° |
| 2026-04-30 21:17 | 59.54457 | -1.35653 | 39244 ft | 477 kts | 123° |
| 2026-04-30 21:17 | 59.51163 | -1.24329 | 39245 ft | 476 kts | 125° |
| 2026-04-30 21:18 | 59.47860 | -1.13158 | 39233 ft | 474 kts | 125° |
| 2026-04-30 21:18 | 59.44533 | -1.02025 | 39235 ft | 474 kts | 125° |
| 2026-04-30 21:19 | 59.41206 | -0.90969 | 39251 ft | 474 kts | 125° |
| 2026-04-30 21:19 | 59.37864 | -0.79922 | 39242 ft | 474 kts | 125° |
| 2026-04-30 21:20 | 59.34485 | -0.68811 | 39265 ft | 474 kts | 125° |
| 2026-04-30 21:20 | 59.31125 | -0.57818 | 39264 ft | 475 kts | 125° |
| 2026-04-30 21:21 | 59.27731 | -0.46763 | 39268 ft | 474 kts | 125° |
| 2026-04-30 21:22 | 59.22644 | -0.30293 | 39272 ft | 474 kts | 126° |
| 2026-04-30 21:23 | 59.15857 | -0.08501 | 39288 ft | 475 kts | 126° |
| 2026-04-30 21:23 | 59.10702 | 0.07918 | 39289 ft | 475 kts | 126° |
| 2026-04-30 21:24 | 59.07278 | 0.18757 | 39300 ft | 474 kts | 126° |
| 2026-04-30 21:24 | 59.03841 | 0.29592 | 39301 ft | 474 kts | 126° |
| 2026-04-30 21:25 | 58.98639 | 0.45891 | 39298 ft | 474 kts | 126° |
| 2026-04-30 21:26 | 58.93437 | 0.62079 | 39304 ft | 476 kts | 125° |
| 2026-04-30 21:27 | 58.88217 | 0.78209 | 39303 ft | 474 kts | 126° |
| 2026-04-30 21:27 | 58.84710 | 0.88986 | 39285 ft | 474 kts | 126° |
| 2026-04-30 21:28 | 58.81226 | 0.99645 | 39418 ft | 474 kts | 126° |
| 2026-04-30 21:28 | 58.79472 | 1.04992 | 39304 ft | 475 kts | 126° |
| 2026-04-30 21:29 | 58.74200 | 1.20989 | 39318 ft | 475 kts | 126° |
| 2026-04-30 21:30 | 58.65345 | 1.47621 | 39325 ft | 474 kts | 126° |
| 2026-04-30 21:31 | 58.56438 | 1.74108 | 39326 ft | 474 kts | 126° |
| 2026-04-30 21:32 | 58.51080 | 1.89897 | 39341 ft | 475 kts | 126° |
| 2026-04-30 21:32 | 58.47500 | 2.00390 | 39343 ft | 474 kts | 126° |
| 2026-04-30 21:33 | 58.42086 | 2.16170 | 39355 ft | 475 kts | 126° |
| 2026-04-30 21:34 | 58.38484 | 2.26613 | 39357 ft | 474 kts | 126° |
| 2026-04-30 21:34 | 58.33049 | 2.42281 | 39365 ft | 475 kts | 126° |
| 2026-04-30 21:35 | 58.29420 | 2.52684 | 39366 ft | 474 kts | 126° |
| 2026-04-30 21:35 | 58.25790 | 2.63044 | 39370 ft | 475 kts | 126° |
| 2026-04-30 21:36 | 58.22137 | 2.73431 | 39368 ft | 474 kts | 127° |
| 2026-04-30 21:37 | 58.14796 | 2.94155 | 39371 ft | 477 kts | 127° |
| 2026-04-30 21:37 | 58.11100 | 3.04522 | 39384 ft | 477 kts | 127° |
| 2026-04-30 21:38 | 58.07403 | 3.14849 | 39376 ft | 476 kts | 126° |
| 2026-04-30 21:38 | 58.03705 | 3.25136 | 39381 ft | 476 kts | 126° |
| 2026-04-30 21:39 | 58.00008 | 3.35370 | 39377 ft | 476 kts | 126° |
| 2026-04-30 21:39 | 57.96277 | 3.45657 | 39384 ft | 475 kts | 126° |
| 2026-04-30 21:40 | 57.92564 | 3.55850 | 39389 ft | 476 kts | 126° |
| 2026-04-30 21:40 | 57.88487 | 3.65541 | 39408 ft | 474 kts | 133° |
| 2026-04-30 21:41 | 57.84227 | 3.74919 | 39404 ft | 474 kts | 133° |
| 2026-04-30 21:41 | 57.79955 | 3.84204 | 39399 ft | 473 kts | 133° |
| 2026-04-30 21:42 | 57.75666 | 3.93458 | 39404 ft | 472 kts | 133° |
| 2026-04-30 21:42 | 57.71361 | 4.02702 | 39405 ft | 472 kts | 133° |
| 2026-04-30 21:43 | 57.67054 | 4.11908 | 39404 ft | 473 kts | 133° |
| 2026-04-30 21:43 | 57.62736 | 4.21098 | 39405 ft | 473 kts | 133° |
| 2026-04-30 21:44 | 57.58402 | 4.30291 | 39403 ft | 475 kts | 133° |
| 2026-04-30 21:44 | 57.54061 | 4.39459 | 39408 ft | 474 kts | 133° |
| 2026-04-30 21:45 | 57.49731 | 4.48568 | 39410 ft | 475 kts | 133° |
| 2026-04-30 21:45 | 57.45359 | 4.57728 | 39413 ft | 475 kts | 133° |
| 2026-04-30 21:46 | 57.40981 | 4.66868 | 39418 ft | 475 kts | 133° |
| 2026-04-30 21:46 | 57.36615 | 4.75945 | 39419 ft | 474 kts | 133° |
| 2026-04-30 21:47 | 57.32245 | 4.84998 | 39414 ft | 474 kts | 133° |
| 2026-04-30 21:47 | 57.27877 | 4.94010 | 39416 ft | 474 kts | 133° |
| 2026-04-30 21:48 | 57.23473 | 5.03061 | 39419 ft | 475 kts | 133° |
| 2026-04-30 21:48 | 57.19088 | 5.12040 | 39427 ft | 476 kts | 133° |
| 2026-04-30 21:49 | 57.14687 | 5.21016 | 39426 ft | 475 kts | 133° |
| 2026-04-30 21:49 | 57.10271 | 5.29989 | 39427 ft | 476 kts | 133° |
| 2026-04-30 21:50 | 57.05845 | 5.38947 | 39425 ft | 475 kts | 133° |
| 2026-04-30 21:50 | 57.01415 | 5.47879 | 39426 ft | 475 kts | 132° |
| 2026-04-30 21:51 | 56.97545 | 5.57608 | 39425 ft | 475 kts | 123° |
| 2026-04-30 21:51 | 56.93909 | 5.67678 | 39426 ft | 475 kts | 124° |
| 2026-04-30 21:52 | 56.90275 | 5.77715 | 39423 ft | 477 kts | 123° |
| 2026-04-30 21:52 | 56.86625 | 5.87765 | 39422 ft | 477 kts | 123° |
| 2026-04-30 21:53 | 56.82964 | 5.97807 | 39424 ft | 476 kts | 123° |
| 2026-04-30 21:53 | 56.79299 | 6.07813 | 39421 ft | 476 kts | 123° |
| 2026-04-30 21:54 | 56.75636 | 6.17777 | 39421 ft | 476 kts | 123° |
| 2026-04-30 21:54 | 56.71939 | 6.27791 | 39423 ft | 476 kts | 123° |
| 2026-04-30 21:55 | 56.68278 | 6.37668 | 39423 ft | 475 kts | 123° |
| 2026-04-30 21:55 | 56.64585 | 6.47588 | 39432 ft | 476 kts | 123° |
| 2026-04-30 21:56 | 56.60880 | 6.57503 | 39439 ft | 477 kts | 123° |
| 2026-04-30 21:56 | 56.57149 | 6.67444 | 39441 ft | 476 kts | 124° |
| 2026-04-30 21:57 | 56.53447 | 6.77271 | 39441 ft | 476 kts | 124° |
| 2026-04-30 21:57 | 56.49763 | 6.87008 | 39414 ft | 459 kts | 123° |
| 2026-04-30 21:58 | 56.47992 | 6.91675 | 39206 ft | 449 kts | 123° |
| 2026-04-30 21:58 | 56.46221 | 6.96334 | 38412 ft | 449 kts | 123° |
| 2026-04-30 21:58 | 56.44464 | 7.00949 | 37615 ft | 449 kts | 123° |
| 2026-04-30 21:58 | 56.42711 | 7.05587 | 36795 ft | 449 kts | 121° |
| 2026-04-30 21:59 | 56.41239 | 7.10532 | 35869 ft | 450 kts | 112° |
| 2026-04-30 21:59 | 56.40213 | 7.15806 | 34895 ft | 452 kts | 106° |
| 2026-04-30 21:59 | 56.39247 | 7.21145 | 33994 ft | 454 kts | 108° |
| 2026-04-30 22:00 | 56.37053 | 7.31823 | 32162 ft | 457 kts | 110° |
| 2026-04-30 22:00 | 56.34740 | 7.42424 | 30241 ft | 460 kts | 110° |
| 2026-04-30 22:00 | 56.33565 | 7.47694 | 29372 ft | 458 kts | 110° |
| 2026-04-30 22:01 | 56.32372 | 7.53001 | 28643 ft | 452 kts | 111° |
| 2026-04-30 22:01 | 56.31211 | 7.58135 | 27915 ft | 447 kts | 111° |
| 2026-04-30 22:01 | 56.30048 | 7.63257 | 27189 ft | 442 kts | 111° |
| 2026-04-30 22:01 | 56.28883 | 7.68365 | 26477 ft | 435 kts | 111° |
| 2026-04-30 22:02 | 56.27746 | 7.73337 | 25788 ft | 423 kts | 111° |
| 2026-04-30 22:02 | 56.26638 | 7.78171 | 25146 ft | 423 kts | 111° |
| 2026-04-30 22:02 | 56.25521 | 7.83029 | 24519 ft | 427 kts | 111° |
| 2026-04-30 22:02 | 56.24382 | 7.87969 | 23866 ft | 425 kts | 111° |
| 2026-04-30 22:03 | 56.23261 | 7.92823 | 23219 ft | 420 kts | 111° |
| 2026-04-30 22:03 | 56.22152 | 7.97612 | 22589 ft | 415 kts | 111° |
| 2026-04-30 22:03 | 56.21050 | 8.02359 | 21979 ft | 412 kts | 111° |
| 2026-04-30 22:03 | 56.19958 | 8.07054 | 21384 ft | 408 kts | 111° |
| 2026-04-30 22:04 | 56.18876 | 8.11696 | 20796 ft | 402 kts | 111° |
| 2026-04-30 22:04 | 56.17806 | 8.16275 | 20218 ft | 397 kts | 111° |
| 2026-04-30 22:04 | 56.15706 | 8.25237 | 19103 ft | 390 kts | 111° |
| 2026-04-30 22:05 | 56.14659 | 8.29690 | 18547 ft | 387 kts | 111° |
| 2026-04-30 22:05 | 56.13611 | 8.34140 | 17995 ft | 384 kts | 112° |
| 2026-04-30 22:05 | 56.12589 | 8.38467 | 17450 ft | 381 kts | 112° |
| 2026-04-30 22:05 | 56.11556 | 8.42835 | 16901 ft | 378 kts | 112° |
| 2026-04-30 22:06 | 56.10533 | 8.47152 | 16364 ft | 374 kts | 112° |
| 2026-04-30 22:06 | 56.08527 | 8.55588 | 15310 ft | 367 kts | 112° |
| 2026-04-30 22:06 | 56.07540 | 8.59727 | 14790 ft | 364 kts | 112° |
| 2026-04-30 22:07 | 56.06550 | 8.63876 | 14276 ft | 360 kts | 112° |
| 2026-04-30 22:07 | 56.05565 | 8.67990 | 13768 ft | 358 kts | 113° |
| 2026-04-30 22:07 | 56.04595 | 8.72035 | 13265 ft | 355 kts | 113° |
| 2026-04-30 22:07 | 56.03628 | 8.76059 | 12772 ft | 353 kts | 113° |
| 2026-04-30 22:08 | 56.02663 | 8.80069 | 12272 ft | 350 kts | 113° |
| 2026-04-30 22:08 | 56.01704 | 8.84045 | 11765 ft | 347 kts | 113° |
| 2026-04-30 22:08 | 56.00758 | 8.87961 | 11265 ft | 344 kts | 113° |
| 2026-04-30 22:08 | 55.99815 | 8.91859 | 10795 ft | 341 kts | 113° |
| 2026-04-30 22:09 | 55.98912 | 8.95583 | 10675 ft | 322 kts | 113° |
| 2026-04-30 22:09 | 55.98039 | 8.99176 | 10626 ft | 303 kts | 113° |
| 2026-04-30 22:09 | 55.97227 | 9.02513 | 10590 ft | 286 kts | 113° |
| 2026-04-30 22:09 | 55.96462 | 9.05655 | 10395 ft | 272 kts | 113° |
| 2026-04-30 22:10 | 55.95708 | 9.08747 | 9759 ft | 273 kts | 113° |
| 2026-04-30 22:10 | 55.94958 | 9.11819 | 9236 ft | 271 kts | 113° |
| 2026-04-30 22:10 | 55.94211 | 9.14870 | 8917 ft | 267 kts | 113° |
| 2026-04-30 22:10 | 55.93473 | 9.17886 | 8534 ft | 266 kts | 113° |
| 2026-04-30 22:11 | 55.92010 | 9.23845 | 7830 ft | 263 kts | 114° |
| 2026-04-30 22:11 | 55.91277 | 9.26826 | 7454 ft | 262 kts | 114° |
| 2026-04-30 22:11 | 55.90547 | 9.29789 | 7094 ft | 261 kts | 114° |
| 2026-04-30 22:12 | 55.89826 | 9.32710 | 6729 ft | 259 kts | 114° |
| 2026-04-30 22:12 | 55.89099 | 9.35655 | 6340 ft | 259 kts | 114° |
| 2026-04-30 22:12 | 55.88372 | 9.38593 | 5975 ft | 258 kts | 114° |
| 2026-04-30 22:12 | 55.87658 | 9.41476 | 5621 ft | 257 kts | 114° |
| 2026-04-30 22:13 | 55.86938 | 9.44381 | 5266 ft | 256 kts | 114° |
| 2026-04-30 22:13 | 55.86221 | 9.47267 | 4915 ft | 255 kts | 114° |
| 2026-04-30 22:13 | 55.85503 | 9.50158 | 4535 ft | 255 kts | 114° |
| 2026-04-30 22:13 | 55.84535 | 9.52771 | 4148 ft | 254 kts | 139° |
| 2026-04-30 22:14 | 55.83001 | 9.54235 | 3734 ft | 254 kts | 168° |
| 2026-04-30 22:14 | 55.81296 | 9.54169 | 3564 ft | 242 kts | 193° |
| 2026-04-30 22:14 | 55.79686 | 9.53492 | 3552 ft | 228 kts | 194° |
| 2026-04-30 22:14 | 55.78203 | 9.52822 | 3534 ft | 215 kts | 195° |
| 2026-04-30 22:15 | 55.76796 | 9.52123 | 3463 ft | 205 kts | 199° |
| 2026-04-30 22:15 | 55.75708 | 9.50777 | 3434 ft | 185 kts | 237° |
| 2026-04-30 22:15 | 55.75142 | 9.48772 | 3446 ft | 183 kts | 253° |
| 2026-04-30 22:15 | 55.74974 | 9.46510 | 3451 ft | 187 kts | 266° |
| 2026-04-30 22:16 | 55.74896 | 9.44189 | 3296 ft | 189 kts | 265° |
| 2026-04-30 22:16 | 55.74817 | 9.41930 | 3064 ft | 183 kts | 266° |
| 2026-04-30 22:17 | 55.74636 | 9.35969 | 2360 ft | 136 kts | 266° |
| 2026-04-30 22:17 | 55.74590 | 9.34378 | 2135 ft | 123 kts | 267° |
| 2026-04-30 22:17 | 55.74506 | 9.31424 | 1819 ft | 123 kts | 267° |
| 2026-04-30 22:18 | 55.74464 | 9.29899 | 1648 ft | 123 kts | 267° |
| 2026-04-30 22:18 | 55.74394 | 9.26876 | 1301 ft | 122 kts | 266° |
| 2026-04-30 22:19 | 55.74293 | 9.23879 | 992 ft | 123 kts | 266° |
| 2026-04-30 22:19 | 55.74257 | 9.22356 | 849 ft | 122 kts | 267° |
| 2026-04-30 22:19 | 55.74159 | 9.19298 | 477 ft | 126 kts | 266° |
| 2026-04-30 22:20 | 55.74115 | 9.17782 | 269 ft | 120 kts | 267° |